createdAt,value
2017-11-08T00:01:25.877Z,27.13
2017-11-08T00:03:52.507Z,28.27
2017-11-08T00:06:19.120Z,30.50
2017-11-08T00:08:45.752Z,31.10
2017-11-08T00:11:12.372Z,30.80
2017-11-08T00:13:38.981Z,30.27
2017-11-08T00:16:07.400Z,29.73
2017-11-08T00:18:34.001Z,31.97
2017-11-08T00:21:00.621Z,25.47
2017-11-08T00:23:27.213Z,28.33
2017-11-08T00:25:53.865Z,26.97
2017-11-08T00:28:20.461Z,25.93
2017-11-08T00:30:47.102Z,25.23
2017-11-08T00:33:13.728Z,24.40
2017-11-08T00:35:40.326Z,29.63
2017-11-08T00:38:06.962Z,26.10
2017-11-08T00:40:33.898Z,29.17
2017-11-08T00:43:00.545Z,29.30
2017-11-08T00:45:27.124Z,28.40
2017-11-08T00:47:53.793Z,29.30
2017-11-08T00:50:20.385Z,31.23
2017-11-08T00:52:48.890Z,26.63
2017-11-08T00:55:15.510Z,25.60
2017-11-08T00:57:47.957Z,29.53
2017-11-08T01:00:15.455Z,29.70
2017-11-08T01:02:42.091Z,25.53
2017-11-08T01:05:08.733Z,27.43
2017-11-08T01:07:35.368Z,26.27
2017-11-08T01:10:01.965Z,26.67
2017-11-08T01:12:28.590Z,32.60
2017-11-08T01:14:55.202Z,32.77
2017-11-08T01:17:21.838Z,29.00
2017-11-08T01:19:48.469Z,27.63
2017-11-08T01:22:15.084Z,28.77
2017-11-08T01:24:41.732Z,29.47
2017-11-08T01:27:08.340Z,31.87
2017-11-08T01:29:34.956Z,27.43
2017-11-08T01:32:01.587Z,31.00
2017-11-08T01:34:28.185Z,25.20
2017-11-08T01:37:00.517Z,33.23
2017-11-08T01:39:27.154Z,32.50
2017-11-08T01:41:55.641Z,30.70
2017-11-08T01:44:22.251Z,29.20
2017-11-08T01:46:48.854Z,33.80
2017-11-08T01:49:15.445Z,27.20
2017-11-08T01:51:42.076Z,29.40
2017-11-08T01:54:08.695Z,32.60
2017-11-08T01:56:35.305Z,31.27
2017-11-08T01:59:01.892Z,32.20
2017-11-08T02:01:28.519Z,30.17
2017-11-08T02:03:55.143Z,30.00
2017-11-08T02:06:21.771Z,30.40
2017-11-08T02:08:48.396Z,31.87
2017-11-08T02:11:15.020Z,34.97
2017-11-08T02:13:41.636Z,30.37
2017-11-08T02:16:08.281Z,31.47
2017-11-08T02:18:36.633Z,31.70
2017-11-08T02:21:03.239Z,26.73
2017-11-08T02:23:31.666Z,31.80
2017-11-08T02:25:58.303Z,31.90
2017-11-08T02:28:24.889Z,35.63
2017-11-08T02:30:51.542Z,31.30
2017-11-08T02:33:18.169Z,28.47
2017-11-08T02:35:44.766Z,27.93
2017-11-08T02:38:14.014Z,32.10
2017-11-08T02:40:40.641Z,29.63
2017-11-08T02:43:09.040Z,33.20
2017-11-08T02:45:35.649Z,30.83
2017-11-08T02:48:02.252Z,34.73
2017-11-08T02:50:28.874Z,31.67
2017-11-08T02:52:55.462Z,33.77
2017-11-08T02:55:22.106Z,35.03
2017-11-08T02:57:48.739Z,32.80
2017-11-08T03:00:15.337Z,40.13
2017-11-08T03:02:47.554Z,35.83
2017-11-08T03:05:17.906Z,39.03
2017-11-08T03:07:44.528Z,35.37
2017-11-08T03:10:11.143Z,32.97
2017-11-08T03:12:37.744Z,34.10
2017-11-08T03:15:04.413Z,35.10
2017-11-08T03:17:31.032Z,32.60
2017-11-08T03:19:57.656Z,37.40
2017-11-08T03:22:24.280Z,34.30
2017-11-08T03:24:50.893Z,35.60
2017-11-08T03:27:17.513Z,34.20
2017-11-08T03:29:44.117Z,34.63
2017-11-08T03:32:10.752Z,37.90
2017-11-08T03:34:37.368Z,38.60
2017-11-08T03:37:04.020Z,39.67
2017-11-08T03:39:30.592Z,34.73
2017-11-08T03:41:57.201Z,38.50
2017-11-08T03:44:23.816Z,35.97
2017-11-08T03:46:50.456Z,36.90
2017-11-08T03:49:17.075Z,35.97
2017-11-08T03:51:43.713Z,37.63
2017-11-08T03:54:10.319Z,44.20
2017-11-08T03:56:36.904Z,35.23
2017-11-08T03:59:03.520Z,36.80
2017-11-08T04:01:30.129Z,37.93
2017-11-08T04:03:56.804Z,36.30
2017-11-08T04:06:23.422Z,37.03
2017-11-08T04:08:50.072Z,36.10
2017-11-08T04:11:16.671Z,43.83
2017-11-08T04:13:43.300Z,40.00
2017-11-08T04:16:09.915Z,41.50
2017-11-08T04:18:36.534Z,42.77
2017-11-08T04:21:03.160Z,42.30
2017-11-08T04:23:29.791Z,39.53
2017-11-08T04:25:56.391Z,44.97
2017-11-08T04:28:23.016Z,42.87
2017-11-08T04:30:49.615Z,50.43
2017-11-08T04:33:16.226Z,45.93
2017-11-08T04:35:43.149Z,45.87
2017-11-08T04:38:09.732Z,47.17
2017-11-08T04:40:36.530Z,50.87
2017-11-08T04:43:03.416Z,42.73
2017-11-08T04:45:30.033Z,48.37
2017-11-08T04:48:00.972Z,44.27
2017-11-08T04:50:27.595Z,48.43
2017-11-08T04:52:54.209Z,48.93
2017-11-08T04:55:20.829Z,49.23
2017-11-08T04:57:47.441Z,47.93
2017-11-08T05:00:14.050Z,55.27
2017-11-08T05:02:40.675Z,47.73
2017-11-08T05:05:07.278Z,46.33
2017-11-08T05:07:33.919Z,51.17
2017-11-08T05:10:00.522Z,52.80
2017-11-08T05:12:27.125Z,51.13
2017-11-08T05:14:53.737Z,46.30
2017-11-08T05:17:20.357Z,59.07
2017-11-08T05:19:46.962Z,54.03
2017-11-08T05:22:13.555Z,53.67
2017-11-08T05:24:40.188Z,51.20
2017-11-08T05:27:06.813Z,49.83
2017-11-08T05:29:33.453Z,55.63
2017-11-08T05:32:00.066Z,53.07
2017-11-08T05:34:26.714Z,46.40
2017-11-08T05:36:53.377Z,52.70
2017-11-08T05:39:20.016Z,50.27
2017-11-08T05:41:46.617Z,53.57
2017-11-08T05:44:13.294Z,51.70
2017-11-08T05:46:39.904Z,48.60
2017-11-08T05:49:06.527Z,50.03
2017-11-08T05:51:33.164Z,59.40
2017-11-08T05:53:59.752Z,55.30
2017-11-08T05:56:26.380Z,49.50
2017-11-08T05:58:52.983Z,50.17
2017-11-08T06:01:19.675Z,125.33
2017-11-08T06:03:46.292Z,71.90
2017-11-08T06:06:12.891Z,62.73
2017-11-08T06:08:39.500Z,59.07
2017-11-08T06:11:06.160Z,55.30
2017-11-08T06:13:32.933Z,58.17
2017-11-08T06:15:59.546Z,59.93
2017-11-08T06:18:26.149Z,55.90
2017-11-08T06:20:52.748Z,50.87
2017-11-08T06:23:19.372Z,48.23
2017-11-08T06:25:45.969Z,56.40
2017-11-08T06:28:13.417Z,54.20
2017-11-08T06:30:40.018Z,59.60
2017-11-08T06:33:06.627Z,56.90
2017-11-08T06:35:33.277Z,60.00
2017-11-08T06:37:59.924Z,56.43
2017-11-08T06:40:26.560Z,59.37
2017-11-08T06:42:53.154Z,56.83
2017-11-08T06:45:19.796Z,53.17
2017-11-08T06:47:46.605Z,65.10
2017-11-08T06:50:13.217Z,63.20
2017-11-08T06:52:39.891Z,57.97
2017-11-08T06:55:06.539Z,65.87
2017-11-08T06:57:33.168Z,59.83
2017-11-08T06:59:59.762Z,61.40
2017-11-08T07:02:26.388Z,62.63
2017-11-08T07:04:53.001Z,62.23
2017-11-08T07:07:19.654Z,76.00
2017-11-08T07:09:46.300Z,65.60
2017-11-08T07:12:13.001Z,69.80
2017-11-08T07:14:39.980Z,64.83
2017-11-08T07:17:09.393Z,60.00
2017-11-08T07:19:36.009Z,71.53
2017-11-08T07:22:09.477Z,60.93
2017-11-08T07:24:36.169Z,72.83
2017-11-08T07:27:02.781Z,65.87
2017-11-08T07:29:29.405Z,69.83
2017-11-08T07:31:56.032Z,65.60
2017-11-08T07:34:22.654Z,62.20
2017-11-08T07:36:49.276Z,69.97
2017-11-08T07:39:15.901Z,67.63
2017-11-08T07:41:42.585Z,63.70
2017-11-08T07:44:09.237Z,61.60
2017-11-08T07:46:35.894Z,70.60
2017-11-08T07:49:02.532Z,68.83
2017-11-08T07:51:29.142Z,80.97
2017-11-08T07:53:55.789Z,71.73
2017-11-08T07:56:22.410Z,64.90
2017-11-08T07:58:49.042Z,65.33
2017-11-08T08:01:15.681Z,65.50
2017-11-08T08:03:42.273Z,78.30
2017-11-08T08:06:08.922Z,73.80
2017-11-08T08:08:35.542Z,68.03
2017-11-08T08:11:07.938Z,65.93
2017-11-08T08:13:34.553Z,66.27
2017-11-08T08:16:01.198Z,67.87
2017-11-08T08:18:28.167Z,69.60
2017-11-08T08:20:54.773Z,73.17
2017-11-08T08:23:21.375Z,80.83
2017-11-08T08:25:48.017Z,76.30
2017-11-08T08:28:14.669Z,73.43
2017-11-08T08:30:41.321Z,80.87
2017-11-08T08:33:07.962Z,76.23
2017-11-08T08:35:34.743Z,76.77
2017-11-08T08:38:01.377Z,80.50
2017-11-08T08:40:27.991Z,80.57
2017-11-08T08:42:54.658Z,79.83
2017-11-08T08:45:21.321Z,72.63
2017-11-08T08:47:47.983Z,84.87
2017-11-08T08:50:14.621Z,85.70
2017-11-08T08:52:41.329Z,67.33
2017-11-08T08:55:07.976Z,76.03
2017-11-08T08:57:34.614Z,72.87
2017-11-08T09:00:01.224Z,73.60
2017-11-08T09:02:31.300Z,79.00
2017-11-08T09:04:57.933Z,80.27
2017-11-08T09:07:24.558Z,76.57
2017-11-08T09:09:51.209Z,72.80
2017-11-08T09:12:17.813Z,71.10
2017-11-08T09:14:44.992Z,70.43
2017-11-08T09:17:11.638Z,68.47
2017-11-08T09:19:38.260Z,72.83
2017-11-08T09:22:04.906Z,80.43
2017-11-08T09:24:34.820Z,73.73
2017-11-08T09:27:03.328Z,76.47
2017-11-08T09:29:29.927Z,76.13
2017-11-08T09:31:56.561Z,79.00
2017-11-08T09:34:23.167Z,72.97
2017-11-08T09:36:49.785Z,72.27
2017-11-08T09:39:16.421Z,87.53
2017-11-08T09:41:43.075Z,80.30
2017-11-08T09:44:09.674Z,79.80
2017-11-08T09:46:36.280Z,78.23
2017-11-08T09:49:02.916Z,73.83
2017-11-08T09:51:29.544Z,86.40
2017-11-08T09:53:56.189Z,83.40
2017-11-08T09:56:22.808Z,75.80
2017-11-08T09:58:49.439Z,77.33
2017-11-08T10:01:16.062Z,84.97
2017-11-08T10:03:42.636Z,85.93
2017-11-08T10:06:09.305Z,82.20
2017-11-08T10:08:36.058Z,85.33
2017-11-08T10:11:03.508Z,82.27
2017-11-08T10:13:30.157Z,94.70
2017-11-08T10:15:56.774Z,82.53
2017-11-08T10:18:23.407Z,82.43
2017-11-08T10:20:50.043Z,84.67
2017-11-08T10:23:19.411Z,89.97
2017-11-08T10:25:46.033Z,78.00
2017-11-08T10:28:12.655Z,94.77
2017-11-08T10:30:39.261Z,91.33
2017-11-08T10:33:05.963Z,90.50
2017-11-08T10:35:32.625Z,87.63
2017-11-08T10:37:59.222Z,91.27
2017-11-08T10:40:25.868Z,109.53
2017-11-08T10:42:52.514Z,96.47
2017-11-08T10:45:19.129Z,95.60
2017-11-08T10:47:45.762Z,94.23
2017-11-08T10:50:12.408Z,100.87
2017-11-08T10:52:39.901Z,99.80
2017-11-08T10:55:06.498Z,91.37
2017-11-08T10:57:33.199Z,90.17
2017-11-08T10:59:59.813Z,102.50
2017-11-08T11:02:26.430Z,98.13
2017-11-08T11:04:53.164Z,90.97
2017-11-08T11:07:19.801Z,98.80
2017-11-08T11:09:48.263Z,109.90
2017-11-08T11:12:14.872Z,97.90
2017-11-08T11:14:41.698Z,92.73
2017-11-08T11:17:08.336Z,93.47
2017-11-08T11:19:34.976Z,117.53
2017-11-08T11:22:01.601Z,109.60
2017-11-08T11:24:42.813Z,102.10
2017-11-08T11:27:12.315Z,105.83
2017-11-08T11:29:39.010Z,118.07
2017-11-08T11:32:05.689Z,101.60
2017-11-08T11:34:32.289Z,110.03
2017-11-08T11:36:58.965Z,112.93
2017-11-08T11:39:25.565Z,118.33
2017-11-08T11:41:53.052Z,98.57
2017-11-08T11:44:19.658Z,98.47
2017-11-08T11:46:46.287Z,102.40
2017-11-08T11:49:12.922Z,101.80
2017-11-08T11:51:39.508Z,102.07
2017-11-08T11:54:06.204Z,95.47
2017-11-08T11:56:32.853Z,95.33
2017-11-08T11:58:59.465Z,85.43
2017-11-08T12:01:27.142Z,100.50
2017-11-08T12:03:53.872Z,106.07
2017-11-08T12:06:20.494Z,94.07
2017-11-08T12:08:49.916Z,102.47
2017-11-08T12:11:16.730Z,102.67
2017-11-08T12:13:43.323Z,95.40
2017-11-08T12:16:09.983Z,101.10
2017-11-08T12:18:36.588Z,89.37
2017-11-08T12:21:03.212Z,91.10
2017-11-08T12:23:29.956Z,105.13
2017-11-08T12:25:56.581Z,104.33
2017-11-08T12:28:23.212Z,97.20
2017-11-08T12:30:49.944Z,102.53
2017-11-08T12:33:16.574Z,91.53
2017-11-08T12:35:48.015Z,93.27
2017-11-08T12:38:14.677Z,101.67
2017-11-08T12:40:42.643Z,102.70
2017-11-08T12:43:09.328Z,94.50
2017-11-08T12:45:36.179Z,100.63
2017-11-08T12:48:02.833Z,99.63
2017-11-08T12:50:31.178Z,96.13
2017-11-08T12:52:57.812Z,104.73
2017-11-08T12:55:24.509Z,92.83
2017-11-08T12:57:51.142Z,97.23
2017-11-08T13:00:18.147Z,105.90
2017-11-08T13:02:48.655Z,100.63
2017-11-08T13:05:15.466Z,95.03
2017-11-08T13:07:42.087Z,101.20
2017-11-08T13:10:08.713Z,109.37
2017-11-08T13:12:35.757Z,102.90
2017-11-08T13:15:02.874Z,98.03
2017-11-08T13:17:29.504Z,103.23
2017-11-08T13:19:56.208Z,108.07
2017-11-08T13:22:22.837Z,100.20
2017-11-08T13:24:49.485Z,118.33
2017-11-08T13:27:16.090Z,110.17
2017-11-08T13:29:42.754Z,102.47
2017-11-08T13:32:09.379Z,103.97
2017-11-08T13:34:36.001Z,108.40
2017-11-08T13:37:02.628Z,101.63
2017-11-08T13:39:29.281Z,101.43
2017-11-08T13:41:55.956Z,109.23
2017-11-08T13:44:22.592Z,115.67
2017-11-08T13:46:49.276Z,110.10
2017-11-08T13:49:15.929Z,114.00
2017-11-08T13:51:42.757Z,107.83
2017-11-08T13:54:09.550Z,110.82
2017-11-08T13:56:36.163Z,99.00
2017-11-08T13:59:02.790Z,99.57
2017-11-08T14:01:29.434Z,97.60
2017-11-08T14:03:56.050Z,96.87
2017-11-08T14:06:22.807Z,88.33
2017-11-08T14:08:49.898Z,100.23
2017-11-08T14:11:16.801Z,104.03
2017-11-08T14:13:43.473Z,105.83
2017-11-08T14:16:10.136Z,95.23
2017-11-08T14:18:36.761Z,99.43
2017-11-08T14:21:03.456Z,92.73
2017-11-08T14:23:30.218Z,95.70
2017-11-08T14:25:56.835Z,91.70
2017-11-08T14:28:23.496Z,101.70
2017-11-08T14:30:50.130Z,102.43
2017-11-08T14:33:16.766Z,101.90
2017-11-08T14:35:43.424Z,91.83
2017-11-08T14:38:10.370Z,103.10
2017-11-08T14:40:36.974Z,102.53
2017-11-08T14:43:03.598Z,103.90
2017-11-08T14:45:31.113Z,99.60
2017-11-08T14:47:57.934Z,90.60
2017-11-08T14:50:24.641Z,105.63
2017-11-08T14:52:56.962Z,97.33
2017-11-08T14:55:23.653Z,108.53
2017-11-08T14:57:50.283Z,102.30
2017-11-08T15:00:16.950Z,92.13
2017-11-08T15:02:43.605Z,97.63
2017-11-08T15:05:10.350Z,103.97
2017-11-08T15:07:37.174Z,85.80
2017-11-08T15:10:03.765Z,86.17
2017-11-08T15:12:36.084Z,92.63
2017-11-08T15:15:02.840Z,94.90
2017-11-08T15:17:29.481Z,94.63
2017-11-08T15:20:00.037Z,92.97
2017-11-08T15:22:26.728Z,97.27
2017-11-08T15:24:53.510Z,91.23
2017-11-08T15:27:20.150Z,103.63
2017-11-08T15:29:52.625Z,95.10
2017-11-08T15:32:19.258Z,92.73
2017-11-08T15:34:45.878Z,93.57
2017-11-08T15:37:12.481Z,103.10
2017-11-08T15:39:44.921Z,90.70
2017-11-08T15:42:11.585Z,89.67
2017-11-08T15:44:38.214Z,98.57
2017-11-08T15:47:07.746Z,95.63
2017-11-08T15:49:34.375Z,96.33
2017-11-08T15:52:01.018Z,104.30
2017-11-08T15:54:27.618Z,83.67
2017-11-08T15:56:54.329Z,99.10
2017-11-08T15:59:20.975Z,98.43
2017-11-08T16:01:47.887Z,92.27
2017-11-08T16:04:17.273Z,82.67
2017-11-08T16:06:43.871Z,88.30
2017-11-08T16:09:10.604Z,85.73
2017-11-08T16:11:37.267Z,82.87
2017-11-08T16:14:03.873Z,83.90
2017-11-08T16:16:32.271Z,86.20
2017-11-08T16:19:05.599Z,97.47
2017-11-08T16:21:32.246Z,89.20
2017-11-08T16:23:58.995Z,92.37
2017-11-08T16:26:25.606Z,85.57
2017-11-08T16:28:52.249Z,94.97
2017-11-08T16:31:18.853Z,79.97
2017-11-08T16:33:45.496Z,83.00
2017-11-08T16:36:12.111Z,91.33
2017-11-08T16:38:38.806Z,84.67
2017-11-08T16:41:05.419Z,86.60
2017-11-08T16:43:32.019Z,101.27
2017-11-08T16:45:58.661Z,99.17
2017-11-08T16:48:25.735Z,94.73
2017-11-08T16:50:52.405Z,94.47
2017-11-08T16:53:19.279Z,93.03
2017-11-08T16:55:45.881Z,95.13
2017-11-08T16:58:12.605Z,93.77
2017-11-08T17:00:40.193Z,86.50
2017-11-08T17:03:07.658Z,90.47
2017-11-08T17:05:34.260Z,94.60
2017-11-08T17:08:00.880Z,93.90
2017-11-08T17:10:27.533Z,89.23
2017-11-08T17:12:54.256Z,87.07
2017-11-08T17:15:21.840Z,91.70
2017-11-08T17:17:48.509Z,96.27
2017-11-08T17:20:15.154Z,101.53
2017-11-08T17:22:41.804Z,88.90
2017-11-08T17:25:08.939Z,87.60
2017-11-08T17:27:35.554Z,94.23
2017-11-08T17:30:02.162Z,101.93
2017-11-08T17:32:28.802Z,85.67
2017-11-08T17:34:55.477Z,102.20
2017-11-08T17:37:22.132Z,107.53
2017-11-08T17:39:48.892Z,100.73
2017-11-08T17:42:15.619Z,108.87
2017-11-08T17:44:43.230Z,89.67
2017-11-08T17:47:09.945Z,93.23
2017-11-08T17:49:36.652Z,95.53
2017-11-08T17:52:03.385Z,92.23
2017-11-08T17:54:30.186Z,98.80
2017-11-08T17:56:56.917Z,101.23
2017-11-08T17:59:23.747Z,98.40
2017-11-08T18:01:50.386Z,93.73
2017-11-08T18:04:17.045Z,105.23
2017-11-08T18:06:43.750Z,97.77
2017-11-08T18:09:10.396Z,99.87
2017-11-08T18:11:37.109Z,103.43
2017-11-08T18:14:03.723Z,105.10
2017-11-08T18:16:30.851Z,110.80
2017-11-08T18:18:57.481Z,113.77
2017-11-08T18:21:24.136Z,112.00
2017-11-08T18:23:50.893Z,105.30
2017-11-08T18:26:17.494Z,110.17
2017-11-08T18:28:44.161Z,112.07
2017-11-08T18:31:10.812Z,108.63
2017-11-08T18:33:37.517Z,111.50
2017-11-08T18:36:04.234Z,106.13
2017-11-08T18:38:30.937Z,103.50
2017-11-08T18:40:57.579Z,107.23
2017-11-08T18:43:24.323Z,109.43
2017-11-08T18:45:51.011Z,105.60
2017-11-08T18:48:17.605Z,98.43
2017-11-08T18:50:44.258Z,103.63
2017-11-08T18:53:10.881Z,103.90
2017-11-08T18:55:37.527Z,103.33
2017-11-08T18:58:04.150Z,99.63
2017-11-08T19:00:30.771Z,110.77
2017-11-08T19:02:57.406Z,104.93
2017-11-08T19:05:24.042Z,104.37
2017-11-08T19:07:50.684Z,118.73
2017-11-08T19:10:17.385Z,115.23
2017-11-08T19:12:44.038Z,105.90
2017-11-08T19:15:11.305Z,107.00
2017-11-08T19:17:38.132Z,102.07
2017-11-08T19:20:05.024Z,113.10
2017-11-08T19:22:31.661Z,107.67
2017-11-08T19:24:58.307Z,112.97
2017-11-08T19:27:24.939Z,98.63
2017-11-08T19:29:51.624Z,106.40
2017-11-08T19:32:18.422Z,108.03
2017-11-08T19:34:45.551Z,101.90
2017-11-08T19:37:12.386Z,101.60
2017-11-08T19:39:39.538Z,96.43
2017-11-08T19:42:06.352Z,106.00
2017-11-08T19:44:32.980Z,106.70
2017-11-08T19:46:59.665Z,109.10
2017-11-08T19:49:26.272Z,108.43
2017-11-08T19:51:52.955Z,97.50
2017-11-08T19:54:20.072Z,97.70
2017-11-08T19:56:46.781Z,94.60
2017-11-08T19:59:13.412Z,95.70
2017-11-08T20:01:40.024Z,100.57
2017-11-08T20:04:06.974Z,111.57
2017-11-08T20:06:49.095Z,105.93
2017-11-08T20:09:15.993Z,97.43
2017-11-08T20:11:42.638Z,93.23
2017-11-08T20:14:09.263Z,103.77
2017-11-08T20:16:35.919Z,97.60
2017-11-08T20:19:02.746Z,95.73
2017-11-08T20:21:29.472Z,95.77
2017-11-08T20:23:56.097Z,91.27
2017-11-08T20:26:22.766Z,98.03
2017-11-08T20:28:50.376Z,101.10
2017-11-08T20:31:17.177Z,92.60
2017-11-08T20:33:43.802Z,96.67
2017-11-08T20:36:12.472Z,95.40
2017-11-08T20:38:39.200Z,104.53
2017-11-08T20:41:05.936Z,100.80
2017-11-08T20:43:32.648Z,103.07
2017-11-08T20:45:59.289Z,94.93
2017-11-08T20:48:25.954Z,95.53
2017-11-08T20:50:52.612Z,95.90
2017-11-08T20:53:19.575Z,109.83
2017-11-08T20:55:46.396Z,101.13
2017-11-08T20:58:13.093Z,101.30
2017-11-08T21:00:39.683Z,96.77
2017-11-08T21:03:06.402Z,108.57
2017-11-08T21:05:33.102Z,95.30
2017-11-08T21:07:59.887Z,108.17
2017-11-08T21:10:26.565Z,106.70
2017-11-08T21:12:54.250Z,96.67
2017-11-08T21:15:20.903Z,95.40
2017-11-08T21:17:47.538Z,112.30
2017-11-08T21:20:14.871Z,99.30
2017-11-08T21:22:41.561Z,102.43
2017-11-08T21:25:08.201Z,106.57
2017-11-08T21:27:34.856Z,115.33
2017-11-08T21:30:01.523Z,99.70
2017-11-08T21:32:28.384Z,117.47
2017-11-08T21:34:55.018Z,112.17
2017-11-08T21:37:21.648Z,108.60
2017-11-08T21:39:48.288Z,122.60
2017-11-08T21:42:14.919Z,107.10
2017-11-08T21:44:41.553Z,118.87
2017-11-08T21:47:08.161Z,125.43
2017-11-08T21:49:35.199Z,105.37
2017-11-08T21:52:01.819Z,113.40
2017-11-08T21:54:28.447Z,108.63
2017-11-08T21:56:55.132Z,116.13
2017-11-08T21:59:21.767Z,115.43
2017-11-08T22:01:49.059Z,115.33
2017-11-08T22:04:15.778Z,117.70
2017-11-08T22:06:47.443Z,126.63
2017-11-08T22:09:16.323Z,122.30
2017-11-08T22:11:43.844Z,129.02
2017-11-08T22:14:10.813Z,126.57
2017-11-08T22:16:40.799Z,121.97
2017-11-08T22:19:07.502Z,113.50
2017-11-08T22:21:34.142Z,118.10
2017-11-08T22:24:00.794Z,114.13
2017-11-08T22:26:27.440Z,122.80
2017-11-08T22:28:54.143Z,118.10
2017-11-08T22:31:20.795Z,121.57
2017-11-08T22:33:47.410Z,121.50
2017-11-08T22:36:13.997Z,121.67
2017-11-08T22:38:40.690Z,127.23
2017-11-08T22:41:08.196Z,119.07
2017-11-08T22:43:34.842Z,122.40
2017-11-08T22:46:01.570Z,130.30
2017-11-08T22:48:28.173Z,123.47
2017-11-08T22:50:54.856Z,124.77
2017-11-08T22:53:21.535Z,128.17
2017-11-08T22:55:48.158Z,134.63
2017-11-08T22:58:14.930Z,130.20
2017-11-08T23:00:41.584Z,122.37
2017-11-08T23:03:08.201Z,123.63
2017-11-08T23:05:34.846Z,121.30
2017-11-08T23:08:01.461Z,119.43
2017-11-08T23:10:28.099Z,110.03
2017-11-08T23:12:54.723Z,114.60
2017-11-08T23:15:21.360Z,120.10
2017-11-08T23:17:47.998Z,114.23
2017-11-08T23:20:14.638Z,123.83
2017-11-08T23:22:41.259Z,127.10
2017-11-08T23:25:08.005Z,115.63
2017-11-08T23:27:34.640Z,121.53
2017-11-08T23:30:01.242Z,121.77
2017-11-08T23:32:27.853Z,121.47
2017-11-08T23:34:54.495Z,120.83
2017-11-08T23:37:21.120Z,122.30
2017-11-08T23:39:47.748Z,124.50
2017-11-08T23:42:14.414Z,122.80
2017-11-08T23:44:41.017Z,131.47
2017-11-08T23:47:07.640Z,118.83
2017-11-08T23:49:34.252Z,125.83
2017-11-08T23:52:01.196Z,121.77
2017-11-08T23:54:27.817Z,124.63
2017-11-08T23:56:54.436Z,122.90
2017-11-08T23:59:26.815Z,134.20
